Hauptseite
METAR-TAF:

METAR-TAF

Flughäfen :

Ferrara, Italien

Breite: 44-50N, Länge: 011-37E, Höhe: 10 m

Beobachtung

Neuester Wetterbericht von vor 2 Stunden und 0 Minuten, um 17:55 UTC
Windstille
Temperatur 5°C
Luftfeuchtigkeit 75%
Luftdruck 1014 hPa
Sichtweite: 8000 m
Durchbrochene Bewölkung in der Höhe von 8000 ft

METAR: LIPF 221755Z 00000KT 8000 BKN080 05/01 Q1014 RMK BKN VIS MIN 8000

Zeit: 20:55 (19:55 UTC)


TAF: fehlend

Wetterbeobachtungen und Prognosen von mehr als 4000 Flughäfen (METAR und TAF Bericht).

Die verfügbaren Stationen werden durch gelbe und rote Markierungen auf der Karte dargestellt.

Führen Sie die Maus auf sie, um den Namen der Station zu sehen.

Darauf klicken, um die Beobachtung von Wetterbeobachtungen und Prognosen zu sehen.

Um die Karte zu ändern : klicken Sie auf den grünen Tasten mit einem schwarzen Kreuz Zum Vergrößern, auf den grünen Button mit einem Gedankenstrich zu verkleinern, oder auf die grünen Pfeile für benachbarte Karten.


METAR-TAF: